sensor_id;sensor_type;location;lat;lon;timestamp;temperature;humidity
2571;DHT22;1295;51.130;6.732;2023-04-16T00:01:19;11.00;99.90
2571;DHT22;1295;51.130;6.732;2023-04-16T00:03:45;11.00;99.90
2571;DHT22;1295;51.130;6.732;2023-04-16T00:06:11;11.00;99.90
2571;DHT22;1295;51.130;6.732;2023-04-16T00:08:36;11.00;99.90
2571;DHT22;1295;51.130;6.732;2023-04-16T00:11:02;10.90;99.90
2571;DHT22;1295;51.130;6.732;2023-04-16T00:13:27;11.00;99.90
2571;DHT22;1295;51.130;6.732;2023-04-16T00:15:53;11.00;99.90
2571;DHT22;1295;51.130;6.732;2023-04-16T00:18:19;11.00;99.90
2571;DHT22;1295;51.130;6.732;2023-04-16T00:20:46;11.00;99.90
2571;DHT22;1295;51.130;6.732;2023-04-16T00:23:12;10.90;99.90
2571;DHT22;1295;51.130;6.732;2023-04-16T00:25:37;11.00;99.90
2571;DHT22;1295;51.130;6.732;2023-04-16T00:28:03;11.00;99.90
2571;DHT22;1295;51.130;6.732;2023-04-16T00:30:28;11.00;99.90
2571;DHT22;1295;51.130;6.732;2023-04-16T00:32:59;10.80;99.90
2571;DHT22;1295;51.130;6.732;2023-04-16T00:35:35;10.90;99.90
2571;DHT22;1295;51.130;6.732;2023-04-16T00:38:00;10.90;99.90
2571;DHT22;1295;51.130;6.732;2023-04-16T00:40:26;10.90;99.90
2571;DHT22;1295;51.130;6.732;2023-04-16T00:42:52;10.90;99.90
2571;DHT22;1295;51.130;6.732;2023-04-16T00:45:17;10.90;99.90
2571;DHT22;1295;51.130;6.732;2023-04-16T00:47:44;10.90;99.90
2571;DHT22;1295;51.130;6.732;2023-04-16T00:50:10;10.90;99.90
2571;DHT22;1295;51.130;6.732;2023-04-16T00:52:35;10.80;99.90
2571;DHT22;1295;51.130;6.732;2023-04-16T00:55:01;10.90;99.90
2571;DHT22;1295;51.130;6.732;2023-04-16T00:57:26;10.90;99.90
2571;DHT22;1295;51.130;6.732;2023-04-16T00:59:52;10.80;99.90
2571;DHT22;1295;51.130;6.732;2023-04-16T01:02:18;10.90;99.90
2571;DHT22;1295;51.130;6.732;2023-04-16T01:04:43;10.90;99.90
2571;DHT22;1295;51.130;6.732;2023-04-16T01:07:09;10.80;99.90
2571;DHT22;1295;51.130;6.732;2023-04-16T01:09:35;10.80;99.90
2571;DHT22;1295;51.130;6.732;2023-04-16T01:12:00;10.90;99.90
2571;DHT22;1295;51.130;6.732;2023-04-16T01:14:26;10.80;99.90
2571;DHT22;1295;51.130;6.732;2023-04-16T01:16:51;10.80;99.90
2571;DHT22;1295;51.130;6.732;2023-04-16T01:19:17;10.80;99.90
2571;DHT22;1295;51.130;6.732;2023-04-16T01:21:43;10.80;99.90
2571;DHT22;1295;51.130;6.732;2023-04-16T01:24:08;10.70;99.90
2571;DHT22;1295;51.130;6.732;2023-04-16T01:26:34;10.80;99.90
2571;DHT22;1295;51.130;6.732;2023-04-16T01:29:00;10.80;99.90
2571;DHT22;1295;51.130;6.732;2023-04-16T01:31:25;10.80;99.90
2571;DHT22;1295;51.130;6.732;2023-04-16T01:33:51;10.80;99.90
2571;DHT22;1295;51.130;6.732;2023-04-16T01:36:16;10.80;99.90
2571;DHT22;1295;51.130;6.732;2023-04-16T01:38:42;10.90;99.90
2571;DHT22;1295;51.130;6.732;2023-04-16T01:41:08;10.80;99.90
2571;DHT22;1295;51.130;6.732;2023-04-16T01:43:33;10.70;99.90
2571;DHT22;1295;51.130;6.732;2023-04-16T01:46:10;10.80;99.90
2571;DHT22;1295;51.130;6.732;2023-04-16T01:48:32;10.80;99.90
2571;DHT22;1295;51.130;6.732;2023-04-16T01:50:57;10.70;99.90
2571;DHT22;1295;51.130;6.732;2023-04-16T01:53:24;10.80;99.90
2571;DHT22;1295;51.130;6.732;2023-04-16T01:55:49;10.80;99.90
2571;DHT22;1295;51.130;6.732;2023-04-16T01:58:15;10.80;99.90
2571;DHT22;1295;51.130;6.732;2023-04-16T02:00:42;10.70;99.90
2571;DHT22;1295;51.130;6.732;2023-04-16T02:03:08;10.70;99.90
2571;DHT22;1295;51.130;6.732;2023-04-16T02:05:33;10.70;99.90
2571;DHT22;1295;51.130;6.732;2023-04-16T02:07:58;10.60;99.90
2571;DHT22;1295;51.130;6.732;2023-04-16T02:10:24;10.70;99.90
2571;DHT22;1295;51.130;6.732;2023-04-16T02:12:50;10.80;99.90
2571;DHT22;1295;51.130;6.732;2023-04-16T02:15:16;10.70;99.90
2571;DHT22;1295;51.130;6.732;2023-04-16T02:17:41;10.70;99.90
2571;DHT22;1295;51.130;6.732;2023-04-16T02:20:08;10.70;99.90
2571;DHT22;1295;51.130;6.732;2023-04-16T02:22:34;10.70;99.90
2571;DHT22;1295;51.130;6.732;2023-04-16T02:24:59;10.70;99.90
2571;DHT22;1295;51.130;6.732;2023-04-16T02:27:26;10.60;99.90
2571;DHT22;1295;51.130;6.732;2023-04-16T02:29:51;10.60;99.90
2571;DHT22;1295;51.130;6.732;2023-04-16T02:32:17;10.70;99.90
2571;DHT22;1295;51.130;6.732;2023-04-16T02:34:43;10.70;99.90
2571;DHT22;1295;51.130;6.732;2023-04-16T02:37:08;10.70;99.90
2571;DHT22;1295;51.130;6.732;2023-04-16T02:39:34;10.70;99.90
2571;DHT22;1295;51.130;6.732;2023-04-16T02:41:59;10.70;99.90
2571;DHT22;1295;51.130;6.732;2023-04-16T02:44:25;10.70;99.90
2571;DHT22;1295;51.130;6.732;2023-04-16T02:46:51;10.80;99.90
2571;DHT22;1295;51.130;6.732;2023-04-16T02:49:16;10.70;99.90
2571;DHT22;1295;51.130;6.732;2023-04-16T02:51:42;10.70;99.90
2571;DHT22;1295;51.130;6.732;2023-04-16T02:54:08;10.70;99.90
2571;DHT22;1295;51.130;6.732;2023-04-16T02:56:33;10.70;99.90
2571;DHT22;1295;51.130;6.732;2023-04-16T02:59:07;10.70;99.90
2571;DHT22;1295;51.130;6.732;2023-04-16T03:01:33;10.70;99.90
2571;DHT22;1295;51.130;6.732;2023-04-16T03:03:59;10.70;99.90
2571;DHT22;1295;51.130;6.732;2023-04-16T03:06:29;10.70;99.90
2571;DHT22;1295;51.130;6.732;2023-04-16T03:09:06;10.60;99.90
2571;DHT22;1295;51.130;6.732;2023-04-16T03:11:31;10.70;99.90
2571;DHT22;1295;51.130;6.732;2023-04-16T03:13:57;10.60;99.90
2571;DHT22;1295;51.130;6.732;2023-04-16T03:16:23;10.60;99.90
2571;DHT22;1295;51.130;6.732;2023-04-16T03:18:48;10.70;99.90
2571;DHT22;1295;51.130;6.732;2023-04-16T03:21:14;10.60;99.90
2571;DHT22;1295;51.130;6.732;2023-04-16T03:23:39;10.60;99.90
2571;DHT22;1295;51.130;6.732;2023-04-16T03:26:05;10.60;99.90
2571;DHT22;1295;51.130;6.732;2023-04-16T03:28:31;10.60;99.90
2571;DHT22;1295;51.130;6.732;2023-04-16T03:30:58;10.60;99.90
2571;DHT22;1295;51.130;6.732;2023-04-16T03:33:23;10.60;99.90
2571;DHT22;1295;51.130;6.732;2023-04-16T03:35:54;10.60;99.90
2571;DHT22;1295;51.130;6.732;2023-04-16T03:38:19;10.60;99.90
2571;DHT22;1295;51.130;6.732;2023-04-16T03:40:45;10.60;99.90
2571;DHT22;1295;51.130;6.732;2023-04-16T03:43:11;10.70;99.90
2571;DHT22;1295;51.130;6.732;2023-04-16T03:45:37;10.60;99.90
2571;DHT22;1295;51.130;6.732;2023-04-16T03:48:03;10.60;99.90
2571;DHT22;1295;51.130;6.732;2023-04-16T03:50:28;10.60;99.90
2571;DHT22;1295;51.130;6.732;2023-04-16T03:53:00;10.60;99.90
2571;DHT22;1295;51.130;6.732;2023-04-16T03:55:30;10.60;99.90
2571;DHT22;1295;51.130;6.732;2023-04-16T03:57:56;10.60;99.90
2571;DHT22;1295;51.130;6.732;2023-04-16T04:00:22;10.60;99.90
2571;DHT22;1295;51.130;6.732;2023-04-16T04:02:47;10.50;99.90
2571;DHT22;1295;51.130;6.732;2023-04-16T04:05:13;10.60;99.90
2571;DHT22;1295;51.130;6.732;2023-04-16T04:07:38;10.60;99.90
2571;DHT22;1295;51.130;6.732;2023-04-16T04:10:05;10.60;99.90
2571;DHT22;1295;51.130;6.732;2023-04-16T04:12:32;10.60;99.90
2571;DHT22;1295;51.130;6.732;2023-04-16T04:14:58;10.60;99.90
2571;DHT22;1295;51.130;6.732;2023-04-16T04:17:24;10.50;99.90
2571;DHT22;1295;51.130;6.732;2023-04-16T04:19:50;10.50;99.90
2571;DHT22;1295;51.130;6.732;2023-04-16T04:22:16;10.60;99.90
2571;DHT22;1295;51.130;6.732;2023-04-16T04:24:41;10.60;99.90
2571;DHT22;1295;51.130;6.732;2023-04-16T04:27:07;10.60;99.90
2571;DHT22;1295;51.130;6.732;2023-04-16T04:29:32;10.50;99.90
2571;DHT22;1295;51.130;6.732;2023-04-16T04:31:58;10.50;99.90
2571;DHT22;1295;51.130;6.732;2023-04-16T04:34:24;10.50;99.90
2571;DHT22;1295;51.130;6.732;2023-04-16T04:36:49;10.60;99.90
2571;DHT22;1295;51.130;6.732;2023-04-16T04:39:15;10.60;99.90
2571;DHT22;1295;51.130;6.732;2023-04-16T04:41:41;10.60;99.90
2571;DHT22;1295;51.130;6.732;2023-04-16T04:44:06;10.60;99.90
2571;DHT22;1295;51.130;6.732;2023-04-16T04:46:32;10.60;99.90
2571;DHT22;1295;51.130;6.732;2023-04-16T04:48:58;10.60;99.90
2571;DHT22;1295;51.130;6.732;2023-04-16T04:51:31;10.60;99.90
2571;DHT22;1295;51.130;6.732;2023-04-16T04:53:56;10.60;99.90
2571;DHT22;1295;51.130;6.732;2023-04-16T04:56:22;10.50;99.90
2571;DHT22;1295;51.130;6.732;2023-04-16T04:58:49;10.50;99.90
2571;DHT22;1295;51.130;6.732;2023-04-16T05:01:14;10.50;99.90
2571;DHT22;1295;51.130;6.732;2023-04-16T05:03:40;10.50;99.90
2571;DHT22;1295;51.130;6.732;2023-04-16T05:06:06;10.50;99.90
2571;DHT22;1295;51.130;6.732;2023-04-16T05:08:31;10.50;99.90
2571;DHT22;1295;51.130;6.732;2023-04-16T05:10:57;10.50;99.90
2571;DHT22;1295;51.130;6.732;2023-04-16T05:13:23;10.50;99.90
2571;DHT22;1295;51.130;6.732;2023-04-16T05:15:48;10.50;99.90
2571;DHT22;1295;51.130;6.732;2023-04-16T05:18:14;10.40;99.90
2571;DHT22;1295;51.130;6.732;2023-04-16T05:20:40;10.50;99.90
2571;DHT22;1295;51.130;6.732;2023-04-16T05:23:07;10.50;99.90
2571;DHT22;1295;51.130;6.732;2023-04-16T05:25:32;10.40;99.90
2571;DHT22;1295;51.130;6.732;2023-04-16T05:27:58;10.50;99.90
2571;DHT22;1295;51.130;6.732;2023-04-16T05:30:24;10.40;99.90
2571;DHT22;1295;51.130;6.732;2023-04-16T05:32:50;10.50;99.90
2571;DHT22;1295;51.130;6.732;2023-04-16T05:35:16;10.50;99.90
2571;DHT22;1295;51.130;6.732;2023-04-16T05:37:42;10.50;99.90
2571;DHT22;1295;51.130;6.732;2023-04-16T05:40:08;10.50;99.90
2571;DHT22;1295;51.130;6.732;2023-04-16T05:42:34;10.50;99.90
2571;DHT22;1295;51.130;6.732;2023-04-16T05:45:01;10.50;99.90
2571;DHT22;1295;51.130;6.732;2023-04-16T05:47:32;10.40;99.90
2571;DHT22;1295;51.130;6.732;2023-04-16T05:49:59;10.40;99.90
2571;DHT22;1295;51.130;6.732;2023-04-16T05:52:30;10.40;99.90
2571;DHT22;1295;51.130;6.732;2023-04-16T05:55:07;10.40;99.90
2571;DHT22;1295;51.130;6.732;2023-04-16T05:57:33;10.50;99.90
2571;DHT22;1295;51.130;6.732;2023-04-16T05:59:59;10.50;99.90
2571;DHT22;1295;51.130;6.732;2023-04-16T06:02:25;10.50;99.90
2571;DHT22;1295;51.130;6.732;2023-04-16T06:04:50;10.50;99.90
2571;DHT22;1295;51.130;6.732;2023-04-16T06:07:16;10.50;99.90
2571;DHT22;1295;51.130;6.732;2023-04-16T06:09:43;10.50;99.90
2571;DHT22;1295;51.130;6.732;2023-04-16T06:12:07;10.40;99.90
2571;DHT22;1295;51.130;6.732;2023-04-16T06:14:33;10.40;99.90
2571;DHT22;1295;51.130;6.732;2023-04-16T06:16:58;10.40;99.90
2571;DHT22;1295;51.130;6.732;2023-04-16T06:19:24;10.40;99.90
2571;DHT22;1295;51.130;6.732;2023-04-16T06:21:50;10.40;99.90
2571;DHT22;1295;51.130;6.732;2023-04-16T06:24:15;10.40;99.90
2571;DHT22;1295;51.130;6.732;2023-04-16T06:26:41;10.40;99.90
2571;DHT22;1295;51.130;6.732;2023-04-16T06:29:06;10.40;99.90
2571;DHT22;1295;51.130;6.732;2023-04-16T06:31:32;10.40;99.90
2571;DHT22;1295;51.130;6.732;2023-04-16T06:33:58;10.40;99.90
2571;DHT22;1295;51.130;6.732;2023-04-16T06:36:24;10.40;99.90
2571;DHT22;1295;51.130;6.732;2023-04-16T06:38:50;10.40;99.90
2571;DHT22;1295;51.130;6.732;2023-04-16T06:41:16;10.40;99.90
2571;DHT22;1295;51.130;6.732;2023-04-16T06:43:42;10.40;99.90
2571;DHT22;1295;51.130;6.732;2023-04-16T06:46:08;10.40;99.90
2571;DHT22;1295;51.130;6.732;2023-04-16T06:48:34;10.40;99.90
2571;DHT22;1295;51.130;6.732;2023-04-16T06:51:00;10.40;99.90
2571;DHT22;1295;51.130;6.732;2023-04-16T06:53:26;10.40;99.90
2571;DHT22;1295;51.130;6.732;2023-04-16T06:55:52;10.40;99.90
2571;DHT22;1295;51.130;6.732;2023-04-16T06:58:18;10.40;99.90
2571;DHT22;1295;51.130;6.732;2023-04-16T07:00:44;10.40;99.90
2571;DHT22;1295;51.130;6.732;2023-04-16T07:03:09;10.40;99.90
2571;DHT22;1295;51.130;6.732;2023-04-16T07:05:34;10.40;99.90
2571;DHT22;1295;51.130;6.732;2023-04-16T07:08:00;10.40;99.90
2571;DHT22;1295;51.130;6.732;2023-04-16T07:10:26;10.40;99.90
2571;DHT22;1295;51.130;6.732;2023-04-16T07:12:51;10.40;99.90
2571;DHT22;1295;51.130;6.732;2023-04-16T07:15:17;10.40;99.90
2571;DHT22;1295;51.130;6.732;2023-04-16T07:17:43;10.40;99.90
2571;DHT22;1295;51.130;6.732;2023-04-16T07:20:09;10.40;99.90
2571;DHT22;1295;51.130;6.732;2023-04-16T07:22:35;10.40;99.90
2571;DHT22;1295;51.130;6.732;2023-04-16T07:25:02;10.40;99.90
2571;DHT22;1295;51.130;6.732;2023-04-16T07:27:27;10.40;99.90
2571;DHT22;1295;51.130;6.732;2023-04-16T07:29:53;10.30;99.90
2571;DHT22;1295;51.130;6.732;2023-04-16T07:32:20;10.30;99.90
2571;DHT22;1295;51.130;6.732;2023-04-16T07:34:45;10.30;99.90
2571;DHT22;1295;51.130;6.732;2023-04-16T07:37:11;10.40;99.90
2571;DHT22;1295;51.130;6.732;2023-04-16T07:39:36;10.30;99.90
2571;DHT22;1295;51.130;6.732;2023-04-16T07:42:02;10.40;99.90
2571;DHT22;1295;51.130;6.732;2023-04-16T07:44:28;10.30;99.90
2571;DHT22;1295;51.130;6.732;2023-04-16T07:46:53;10.40;99.90
2571;DHT22;1295;51.130;6.732;2023-04-16T07:49:19;10.30;99.90
2571;DHT22;1295;51.130;6.732;2023-04-16T07:51:44;10.40;99.90
2571;DHT22;1295;51.130;6.732;2023-04-16T07:54:10;10.30;99.90
2571;DHT22;1295;51.130;6.732;2023-04-16T07:56:36;10.40;99.90
2571;DHT22;1295;51.130;6.732;2023-04-16T07:59:01;10.40;99.90
2571;DHT22;1295;51.130;6.732;2023-04-16T08:01:27;10.40;99.90
2571;DHT22;1295;51.130;6.732;2023-04-16T08:03:53;10.40;99.90
2571;DHT22;1295;51.130;6.732;2023-04-16T08:06:19;10.30;99.90
2571;DHT22;1295;51.130;6.732;2023-04-16T08:08:45;10.30;99.90
2571;DHT22;1295;51.130;6.732;2023-04-16T08:11:10;10.30;99.90
2571;DHT22;1295;51.130;6.732;2023-04-16T08:13:36;10.30;99.90
2571;DHT22;1295;51.130;6.732;2023-04-16T08:16:02;10.30;99.90
2571;DHT22;1295;51.130;6.732;2023-04-16T08:18:28;10.30;99.90
2571;DHT22;1295;51.130;6.732;2023-04-16T08:20:54;10.30;99.90
2571;DHT22;1295;51.130;6.732;2023-04-16T08:23:19;10.30;99.90
2571;DHT22;1295;51.130;6.732;2023-04-16T08:25:46;10.30;99.90
2571;DHT22;1295;51.130;6.732;2023-04-16T08:28:11;10.40;99.90
2571;DHT22;1295;51.130;6.732;2023-04-16T08:30:36;10.30;99.90
2571;DHT22;1295;51.130;6.732;2023-04-16T08:33:03;10.30;99.90
2571;DHT22;1295;51.130;6.732;2023-04-16T08:35:28;10.30;99.90
2571;DHT22;1295;51.130;6.732;2023-04-16T08:37:54;10.40;99.90
2571;DHT22;1295;51.130;6.732;2023-04-16T08:40:20;10.30;99.90
2571;DHT22;1295;51.130;6.732;2023-04-16T08:42:48;10.30;99.90
2571;DHT22;1295;51.130;6.732;2023-04-16T08:45:14;10.30;99.90
2571;DHT22;1295;51.130;6.732;2023-04-16T08:47:38;10.30;99.90
2571;DHT22;1295;51.130;6.732;2023-04-16T08:50:05;10.30;99.90
2571;DHT22;1295;51.130;6.732;2023-04-16T08:52:32;10.30;99.90
2571;DHT22;1295;51.130;6.732;2023-04-16T08:55:03;10.30;99.90
2571;DHT22;1295;51.130;6.732;2023-04-16T08:57:29;10.30;99.90
2571;DHT22;1295;51.130;6.732;2023-04-16T08:59:53;10.40;99.90
2571;DHT22;1295;51.130;6.732;2023-04-16T09:02:19;10.40;99.90
2571;DHT22;1295;51.130;6.732;2023-04-16T09:04:45;10.40;99.90
2571;DHT22;1295;51.130;6.732;2023-04-16T09:07:10;10.30;99.90
2571;DHT22;1295;51.130;6.732;2023-04-16T09:09:36;10.40;99.90
2571;DHT22;1295;51.130;6.732;2023-04-16T09:12:02;10.40;99.90
2571;DHT22;1295;51.130;6.732;2023-04-16T09:14:27;10.50;99.90
2571;DHT22;1295;51.130;6.732;2023-04-16T09:16:53;10.50;99.90
2571;DHT22;1295;51.130;6.732;2023-04-16T09:19:19;10.50;99.90
2571;DHT22;1295;51.130;6.732;2023-04-16T09:21:46;10.60;99.90
2571;DHT22;1295;51.130;6.732;2023-04-16T09:24:12;10.60;99.90
2571;DHT22;1295;51.130;6.732;2023-04-16T09:26:37;10.60;99.90
2571;DHT22;1295;51.130;6.732;2023-04-16T09:29:03;10.60;99.90
2571;DHT22;1295;51.130;6.732;2023-04-16T09:31:29;10.50;99.90
2571;DHT22;1295;51.130;6.732;2023-04-16T09:34:00;10.60;99.90
2571;DHT22;1295;51.130;6.732;2023-04-16T09:36:25;10.60;99.90
2571;DHT22;1295;51.130;6.732;2023-04-16T09:38:51;10.60;99.90
2571;DHT22;1295;51.130;6.732;2023-04-16T09:41:16;10.70;99.90
2571;DHT22;1295;51.130;6.732;2023-04-16T09:43:48;10.60;99.90
2571;DHT22;1295;51.130;6.732;2023-04-16T09:46:14;10.70;99.90
2571;DHT22;1295;51.130;6.732;2023-04-16T09:48:40;10.70;99.90
2571;DHT22;1295;51.130;6.732;2023-04-16T09:51:05;10.70;99.90
2571;DHT22;1295;51.130;6.732;2023-04-16T09:53:31;10.60;99.90
2571;DHT22;1295;51.130;6.732;2023-04-16T09:56:02;10.70;99.90
2571;DHT22;1295;51.130;6.732;2023-04-16T09:58:27;10.70;99.90
2571;DHT22;1295;51.130;6.732;2023-04-16T10:00:55;10.80;99.90
2571;DHT22;1295;51.130;6.732;2023-04-16T10:03:29;10.70;99.90
2571;DHT22;1295;51.130;6.732;2023-04-16T10:05:54;10.70;99.90
2571;DHT22;1295;51.130;6.732;2023-04-16T10:08:20;10.60;99.90
2571;DHT22;1295;51.130;6.732;2023-04-16T10:10:46;10.60;99.90
2571;DHT22;1295;51.130;6.732;2023-04-16T10:13:11;10.70;99.90
2571;DHT22;1295;51.130;6.732;2023-04-16T10:15:37;10.70;99.90
2571;DHT22;1295;51.130;6.732;2023-04-16T10:18:03;10.70;99.90
2571;DHT22;1295;51.130;6.732;2023-04-16T10:20:29;10.70;99.90
2571;DHT22;1295;51.130;6.732;2023-04-16T10:22:54;10.70;99.90
2571;DHT22;1295;51.130;6.732;2023-04-16T10:25:20;10.60;99.90
2571;DHT22;1295;51.130;6.732;2023-04-16T10:27:46;10.60;99.90
2571;DHT22;1295;51.130;6.732;2023-04-16T10:30:12;10.70;99.90
2571;DHT22;1295;51.130;6.732;2023-04-16T10:32:38;10.60;99.90
2571;DHT22;1295;51.130;6.732;2023-04-16T10:35:05;10.70;99.90
2571;DHT22;1295;51.130;6.732;2023-04-16T10:37:30;10.60;99.90
2571;DHT22;1295;51.130;6.732;2023-04-16T10:39:57;10.70;99.90
2571;DHT22;1295;51.130;6.732;2023-04-16T10:42:22;10.70;99.90
2571;DHT22;1295;51.130;6.732;2023-04-16T10:44:48;10.90;99.90
2571;DHT22;1295;51.130;6.732;2023-04-16T10:47:14;10.80;99.90
2571;DHT22;1295;51.130;6.732;2023-04-16T10:49:41;10.80;99.90
2571;DHT22;1295;51.130;6.732;2023-04-16T10:52:08;10.80;99.90
2571;DHT22;1295;51.130;6.732;2023-04-16T10:54:34;10.80;99.90
2571;DHT22;1295;51.130;6.732;2023-04-16T10:56:58;10.90;99.90
2571;DHT22;1295;51.130;6.732;2023-04-16T10:59:24;10.90;99.90
2571;DHT22;1295;51.130;6.732;2023-04-16T11:01:54;11.10;99.90
2571;DHT22;1295;51.130;6.732;2023-04-16T11:04:28;10.90;99.90
2571;DHT22;1295;51.130;6.732;2023-04-16T11:07:01;10.90;99.90
2571;DHT22;1295;51.130;6.732;2023-04-16T11:12:02;10.90;99.90
2571;DHT22;1295;51.130;6.732;2023-04-16T11:14:28;10.90;99.90
2571;DHT22;1295;51.130;6.732;2023-04-16T11:16:53;11.00;99.90
2571;DHT22;1295;51.130;6.732;2023-04-16T11:19:19;11.10;99.90
2571;DHT22;1295;51.130;6.732;2023-04-16T11:21:45;11.00;99.90
2571;DHT22;1295;51.130;6.732;2023-04-16T11:24:11;10.90;99.90
2571;DHT22;1295;51.130;6.732;2023-04-16T11:26:36;11.00;99.90
2571;DHT22;1295;51.130;6.732;2023-04-16T11:29:02;11.00;99.90
2571;DHT22;1295;51.130;6.732;2023-04-16T11:31:28;11.00;99.90
2571;DHT22;1295;51.130;6.732;2023-04-16T11:33:54;11.00;99.90
2571;DHT22;1295;51.130;6.732;2023-04-16T11:36:19;11.00;99.90
2571;DHT22;1295;51.130;6.732;2023-04-16T11:38:45;11.00;99.90
2571;DHT22;1295;51.130;6.732;2023-04-16T11:41:18;11.10;99.90
2571;DHT22;1295;51.130;6.732;2023-04-16T11:43:36;11.10;99.90
2571;DHT22;1295;51.130;6.732;2023-04-16T11:46:02;11.10;99.90
2571;DHT22;1295;51.130;6.732;2023-04-16T11:51:06;11.00;99.90
2571;DHT22;1295;51.130;6.732;2023-04-16T11:53:32;11.00;99.90
2571;DHT22;1295;51.130;6.732;2023-04-16T11:55:57;11.10;99.90
2571;DHT22;1295;51.130;6.732;2023-04-16T11:58:23;11.10;99.90
2571;DHT22;1295;51.130;6.732;2023-04-16T12:00:48;11.10;99.90
2571;DHT22;1295;51.130;6.732;2023-04-16T12:03:14;11.10;99.90
2571;DHT22;1295;51.130;6.732;2023-04-16T12:05:40;11.10;99.90
2571;DHT22;1295;51.130;6.732;2023-04-16T12:08:07;11.20;99.90
2571;DHT22;1295;51.130;6.732;2023-04-16T12:10:33;11.10;99.90
2571;DHT22;1295;51.130;6.732;2023-04-16T12:13:09;11.40;99.90
2571;DHT22;1295;51.130;6.732;2023-04-16T12:15:46;11.40;99.90
2571;DHT22;1295;51.130;6.732;2023-04-16T12:18:12;11.10;99.90
2571;DHT22;1295;51.130;6.732;2023-04-16T12:20:38;11.20;99.90
2571;DHT22;1295;51.130;6.732;2023-04-16T12:23:03;11.20;99.90
2571;DHT22;1295;51.130;6.732;2023-04-16T12:25:29;11.20;99.90
2571;DHT22;1295;51.130;6.732;2023-04-16T12:27:54;11.20;99.90
2571;DHT22;1295;51.130;6.732;2023-04-16T12:30:21;11.40;99.90
2571;DHT22;1295;51.130;6.732;2023-04-16T12:32:47;11.40;99.90
2571;DHT22;1295;51.130;6.732;2023-04-16T12:35:12;11.40;99.90
2571;DHT22;1295;51.130;6.732;2023-04-16T12:37:38;11.50;99.90
2571;DHT22;1295;51.130;6.732;2023-04-16T12:40:04;11.30;99.90
2571;DHT22;1295;51.130;6.732;2023-04-16T12:42:30;11.50;99.90
2571;DHT22;1295;51.130;6.732;2023-04-16T12:45:02;11.40;99.90
2571;DHT22;1295;51.130;6.732;2023-04-16T12:47:28;11.40;99.90
2571;DHT22;1295;51.130;6.732;2023-04-16T12:49:55;11.40;99.90
2571;DHT22;1295;51.130;6.732;2023-04-16T12:52:20;11.50;99.90
2571;DHT22;1295;51.130;6.732;2023-04-16T12:54:45;11.40;99.90
2571;DHT22;1295;51.130;6.732;2023-04-16T12:57:11;11.50;99.90
2571;DHT22;1295;51.130;6.732;2023-04-16T12:59:36;11.30;99.90
2571;DHT22;1295;51.130;6.732;2023-04-16T13:02:02;11.30;99.90
2571;DHT22;1295;51.130;6.732;2023-04-16T13:04:28;11.30;99.90
2571;DHT22;1295;51.130;6.732;2023-04-16T13:06:53;11.30;99.90
2571;DHT22;1295;51.130;6.732;2023-04-16T13:09:19;11.40;99.90
2571;DHT22;1295;51.130;6.732;2023-04-16T13:11:44;11.40;99.90
2571;DHT22;1295;51.130;6.732;2023-04-16T13:14:10;11.60;99.90
2571;DHT22;1295;51.130;6.732;2023-04-16T13:16:36;11.50;99.90
2571;DHT22;1295;51.130;6.732;2023-04-16T13:19:02;11.50;99.90
2571;DHT22;1295;51.130;6.732;2023-04-16T13:21:28;11.60;99.90
2571;DHT22;1295;51.130;6.732;2023-04-16T13:23:54;11.40;99.90
2571;DHT22;1295;51.130;6.732;2023-04-16T13:26:20;11.30;99.90
2571;DHT22;1295;51.130;6.732;2023-04-16T13:28:46;11.50;99.90
2571;DHT22;1295;51.130;6.732;2023-04-16T13:31:12;11.50;99.90
2571;DHT22;1295;51.130;6.732;2023-04-16T13:33:37;11.60;99.90
2571;DHT22;1295;51.130;6.732;2023-04-16T13:36:03;11.60;99.90
2571;DHT22;1295;51.130;6.732;2023-04-16T13:38:29;11.60;99.90
2571;DHT22;1295;51.130;6.732;2023-04-16T13:40:55;11.40;99.90
2571;DHT22;1295;51.130;6.732;2023-04-16T13:43:20;11.60;99.90
2571;DHT22;1295;51.130;6.732;2023-04-16T13:45:47;11.50;99.90
2571;DHT22;1295;51.130;6.732;2023-04-16T13:48:12;11.50;99.90
2571;DHT22;1295;51.130;6.732;2023-04-16T13:50:38;11.40;99.90
2571;DHT22;1295;51.130;6.732;2023-04-16T13:53:04;11.40;99.90
2571;DHT22;1295;51.130;6.732;2023-04-16T13:55:30;11.40;99.90
2571;DHT22;1295;51.130;6.732;2023-04-16T13:57:56;11.40;99.90
2571;DHT22;1295;51.130;6.732;2023-04-16T14:00:21;11.40;99.90
2571;DHT22;1295;51.130;6.732;2023-04-16T14:02:47;11.50;99.90
2571;DHT22;1295;51.130;6.732;2023-04-16T14:05:13;11.80;99.90
2571;DHT22;1295;51.130;6.732;2023-04-16T14:07:39;11.80;99.90
2571;DHT22;1295;51.130;6.732;2023-04-16T14:10:06;11.80;99.90
2571;DHT22;1295;51.130;6.732;2023-04-16T14:12:32;11.80;99.90
2571;DHT22;1295;51.130;6.732;2023-04-16T14:14:58;11.80;99.90
2571;DHT22;1295;51.130;6.732;2023-04-16T14:17:24;11.70;99.90
2571;DHT22;1295;51.130;6.732;2023-04-16T14:19:49;11.80;99.90
2571;DHT22;1295;51.130;6.732;2023-04-16T14:22:15;12.00;99.90
2571;DHT22;1295;51.130;6.732;2023-04-16T14:24:42;11.80;99.90
2571;DHT22;1295;51.130;6.732;2023-04-16T14:27:07;11.80;99.90
2571;DHT22;1295;51.130;6.732;2023-04-16T14:29:33;12.00;99.90
2571;DHT22;1295;51.130;6.732;2023-04-16T14:31:58;11.90;99.90
2571;DHT22;1295;51.130;6.732;2023-04-16T14:34:24;11.90;99.90
2571;DHT22;1295;51.130;6.732;2023-04-16T14:36:50;11.90;99.90
2571;DHT22;1295;51.130;6.732;2023-04-16T14:39:16;11.90;99.90
2571;DHT22;1295;51.130;6.732;2023-04-16T14:41:41;12.00;99.90
2571;DHT22;1295;51.130;6.732;2023-04-16T14:44:07;12.00;99.90
2571;DHT22;1295;51.130;6.732;2023-04-16T14:46:33;12.00;99.90
2571;DHT22;1295;51.130;6.732;2023-04-16T14:48:58;12.00;99.90
2571;DHT22;1295;51.130;6.732;2023-04-16T14:51:24;11.90;99.90
2571;DHT22;1295;51.130;6.732;2023-04-16T14:53:50;12.00;99.90
2571;DHT22;1295;51.130;6.732;2023-04-16T14:56:15;11.90;99.90
2571;DHT22;1295;51.130;6.732;2023-04-16T14:58:41;11.90;99.90
2571;DHT22;1295;51.130;6.732;2023-04-16T15:01:06;12.00;99.90
2571;DHT22;1295;51.130;6.732;2023-04-16T15:03:32;12.00;99.90
2571;DHT22;1295;51.130;6.732;2023-04-16T15:05:58;12.00;99.90
2571;DHT22;1295;51.130;6.732;2023-04-16T15:08:23;12.00;99.90
2571;DHT22;1295;51.130;6.732;2023-04-16T15:10:49;12.10;99.90
2571;DHT22;1295;51.130;6.732;2023-04-16T15:13:15;12.00;99.90
2571;DHT22;1295;51.130;6.732;2023-04-16T15:15:40;11.90;99.90
2571;DHT22;1295;51.130;6.732;2023-04-16T15:18:06;11.90;99.90
2571;DHT22;1295;51.130;6.732;2023-04-16T15:20:31;11.90;99.90
2571;DHT22;1295;51.130;6.732;2023-04-16T15:22:57;11.80;99.90
2571;DHT22;1295;51.130;6.732;2023-04-16T15:25:23;11.80;99.90
2571;DHT22;1295;51.130;6.732;2023-04-16T15:27:48;11.90;99.90
2571;DHT22;1295;51.130;6.732;2023-04-16T15:30:14;11.90;99.90
2571;DHT22;1295;51.130;6.732;2023-04-16T15:32:40;11.90;99.90
2571;DHT22;1295;51.130;6.732;2023-04-16T15:35:06;12.00;99.90
2571;DHT22;1295;51.130;6.732;2023-04-16T15:37:31;12.00;99.90
2571;DHT22;1295;51.130;6.732;2023-04-16T15:39:58;12.20;99.90
2571;DHT22;1295;51.130;6.732;2023-04-16T15:42:23;12.10;99.90
2571;DHT22;1295;51.130;6.732;2023-04-16T15:44:49;12.20;99.90
2571;DHT22;1295;51.130;6.732;2023-04-16T15:47:15;12.00;99.90
2571;DHT22;1295;51.130;6.732;2023-04-16T15:49:40;12.10;99.90
2571;DHT22;1295;51.130;6.732;2023-04-16T15:52:06;12.00;99.90
2571;DHT22;1295;51.130;6.732;2023-04-16T15:54:31;12.00;99.90
2571;DHT22;1295;51.130;6.732;2023-04-16T15:56:57;12.00;99.90
2571;DHT22;1295;51.130;6.732;2023-04-16T15:59:30;12.00;99.90